sensor_id;sensor_type;location;lat;lon;timestamp;P1;durP1;ratioP1;P2;durP2;ratioP2
7193;SDS011;3638;48.820;9.244;2023-02-26T00:01:29;4.90;;;4.30;;
7193;SDS011;3638;48.820;9.244;2023-02-26T00:03:59;5.30;;;4.40;;
7193;SDS011;3638;48.820;9.244;2023-02-26T00:06:32;4.20;;;3.90;;
7193;SDS011;3638;48.820;9.244;2023-02-26T00:09:01;4.87;;;4.37;;
7193;SDS011;3638;48.820;9.244;2023-02-26T00:11:29;4.83;;;4.20;;
7193;SDS011;3638;48.820;9.244;2023-02-26T00:13:58;5.33;;;4.27;;
7193;SDS011;3638;48.820;9.244;2023-02-26T00:16:27;5.53;;;4.50;;
7193;SDS011;3638;48.820;9.244;2023-02-26T00:18:56;4.80;;;4.30;;
7193;SDS011;3638;48.820;9.244;2023-02-26T00:21:25;5.80;;;5.00;;
7193;SDS011;3638;48.820;9.244;2023-02-26T00:23:54;4.80;;;4.37;;
7193;SDS011;3638;48.820;9.244;2023-02-26T00:26:22;5.00;;;4.60;;
7193;SDS011;3638;48.820;9.244;2023-02-26T00:28:52;7.17;;;4.87;;
7193;SDS011;3638;48.820;9.244;2023-02-26T00:31:20;5.03;;;4.43;;
7193;SDS011;3638;48.820;9.244;2023-02-26T00:33:49;4.87;;;4.47;;
7193;SDS011;3638;48.820;9.244;2023-02-26T00:36:21;4.97;;;4.50;;
7193;SDS011;3638;48.820;9.244;2023-02-26T00:38:56;6.07;;;5.00;;
7193;SDS011;3638;48.820;9.244;2023-02-26T00:41:32;4.93;;;4.43;;
7193;SDS011;3638;48.820;9.244;2023-02-26T00:44:02;4.77;;;4.37;;
7193;SDS011;3638;48.820;9.244;2023-02-26T00:46:33;5.57;;;4.50;;
7193;SDS011;3638;48.820;9.244;2023-02-26T00:49:09;5.63;;;4.30;;
7193;SDS011;3638;48.820;9.244;2023-02-26T00:51:47;6.53;;;4.53;;
7193;SDS011;3638;48.820;9.244;2023-02-26T00:54:18;5.50;;;5.00;;
7193;SDS011;3638;48.820;9.244;2023-02-26T00:56:47;5.03;;;4.40;;
7193;SDS011;3638;48.820;9.244;2023-02-26T00:59:16;5.20;;;4.70;;
7193;SDS011;3638;48.820;9.244;2023-02-26T01:01:44;6.30;;;5.07;;
7193;SDS011;3638;48.820;9.244;2023-02-26T01:04:11;5.00;;;4.50;;
7193;SDS011;3638;48.820;9.244;2023-02-26T01:06:40;7.03;;;4.60;;
7193;SDS011;3638;48.820;9.244;2023-02-26T01:09:12;5.43;;;4.70;;
7193;SDS011;3638;48.820;9.244;2023-02-26T01:11:48;5.23;;;4.73;;
7193;SDS011;3638;48.820;9.244;2023-02-26T01:14:17;6.13;;;5.00;;
7193;SDS011;3638;48.820;9.244;2023-02-26T01:16:47;6.63;;;5.07;;
7193;SDS011;3638;48.820;9.244;2023-02-26T01:19:23;5.10;;;4.60;;
7193;SDS011;3638;48.820;9.244;2023-02-26T01:21:59;5.07;;;4.57;;
7193;SDS011;3638;48.820;9.244;2023-02-26T01:24:32;4.87;;;4.47;;
7193;SDS011;3638;48.820;9.244;2023-02-26T01:27:01;5.80;;;5.20;;
7193;SDS011;3638;48.820;9.244;2023-02-26T01:29:29;6.43;;;4.60;;
7193;SDS011;3638;48.820;9.244;2023-02-26T01:31:59;4.90;;;4.40;;
7193;SDS011;3638;48.820;9.244;2023-02-26T01:34:34;7.00;;;5.03;;
7193;SDS011;3638;48.820;9.244;2023-02-26T01:37:07;5.33;;;4.83;;
7193;SDS011;3638;48.820;9.244;2023-02-26T01:39:47;5.63;;;4.90;;
7193;SDS011;3638;48.820;9.244;2023-02-26T01:42:34;5.50;;;5.00;;
7193;SDS011;3638;48.820;9.244;2023-02-26T01:45:09;4.87;;;4.47;;
7193;SDS011;3638;48.820;9.244;2023-02-26T01:47:39;5.37;;;4.87;;
7193;SDS011;3638;48.820;9.244;2023-02-26T01:50:14;5.30;;;4.90;;
7193;SDS011;3638;48.820;9.244;2023-02-26T01:55:47;5.37;;;4.83;;
7193;SDS011;3638;48.820;9.244;2023-02-26T01:58:19;5.67;;;5.07;;
7193;SDS011;3638;48.820;9.244;2023-02-26T02:00:48;5.43;;;4.93;;
7193;SDS011;3638;48.820;9.244;2023-02-26T02:03:16;6.23;;;5.10;;
7193;SDS011;3638;48.820;9.244;2023-02-26T02:05:44;5.90;;;5.07;;
7193;SDS011;3638;48.820;9.244;2023-02-26T02:08:15;5.70;;;5.20;;
7193;SDS011;3638;48.820;9.244;2023-02-26T02:10:42;5.53;;;5.07;;
7193;SDS011;3638;48.820;9.244;2023-02-26T02:13:15;5.20;;;4.70;;
7193;SDS011;3638;48.820;9.244;2023-02-26T02:15:56;5.30;;;4.80;;
7193;SDS011;3638;48.820;9.244;2023-02-26T02:18:37;5.77;;;5.00;;
7193;SDS011;3638;48.820;9.244;2023-02-26T02:21:24;5.30;;;4.90;;
7193;SDS011;3638;48.820;9.244;2023-02-26T02:24:10;5.53;;;5.03;;
7193;SDS011;3638;48.820;9.244;2023-02-26T02:32:37;5.10;;;4.67;;
7193;SDS011;3638;48.820;9.244;2023-02-26T02:35:11;5.93;;;5.13;;
7193;SDS011;3638;48.820;9.244;2023-02-26T02:37:45;5.27;;;4.87;;
7193;SDS011;3638;48.820;9.244;2023-02-26T02:40:22;6.17;;;5.57;;
7193;SDS011;3638;48.820;9.244;2023-02-26T02:42:54;5.37;;;4.87;;
7193;SDS011;3638;48.820;9.244;2023-02-26T02:45:29;5.67;;;5.17;;
7193;SDS011;3638;48.820;9.244;2023-02-26T02:48:04;6.00;;;5.43;;
7193;SDS011;3638;48.820;9.244;2023-02-26T02:50:38;5.60;;;5.20;;
7193;SDS011;3638;48.820;9.244;2023-02-26T02:53:10;5.50;;;5.00;;
7193;SDS011;3638;48.820;9.244;2023-02-26T02:55:45;6.97;;;5.00;;
7193;SDS011;3638;48.820;9.244;2023-02-26T02:58:17;6.47;;;5.20;;
7193;SDS011;3638;48.820;9.244;2023-02-26T03:00:50;5.43;;;4.93;;
7193;SDS011;3638;48.820;9.244;2023-02-26T03:03:23;6.53;;;5.73;;
7193;SDS011;3638;48.820;9.244;2023-02-26T03:05:55;5.30;;;4.80;;
7193;SDS011;3638;48.820;9.244;2023-02-26T03:08:24;7.80;;;5.63;;
7193;SDS011;3638;48.820;9.244;2023-02-26T03:10:54;6.23;;;5.43;;
7193;SDS011;3638;48.820;9.244;2023-02-26T03:13:23;6.27;;;5.33;;
7193;SDS011;3638;48.820;9.244;2023-02-26T03:15:55;5.90;;;5.30;;
7193;SDS011;3638;48.820;9.244;2023-02-26T03:18:39;6.83;;;5.50;;
7193;SDS011;3638;48.820;9.244;2023-02-26T03:21:17;6.20;;;5.60;;
7193;SDS011;3638;48.820;9.244;2023-02-26T03:23:53;6.00;;;5.40;;
7193;SDS011;3638;48.820;9.244;2023-02-26T03:26:28;6.00;;;5.40;;
7193;SDS011;3638;48.820;9.244;2023-02-26T03:29:01;5.50;;;5.00;;
7193;SDS011;3638;48.820;9.244;2023-02-26T03:31:32;6.03;;;5.40;;
7193;SDS011;3638;48.820;9.244;2023-02-26T03:34:10;5.93;;;4.83;;
7193;SDS011;3638;48.820;9.244;2023-02-26T03:36:42;5.83;;;4.90;;
7193;SDS011;3638;48.820;9.244;2023-02-26T03:39:15;6.07;;;5.23;;
7193;SDS011;3638;48.820;9.244;2023-02-26T03:41:46;6.13;;;4.93;;
7193;SDS011;3638;48.820;9.244;2023-02-26T03:44:21;5.77;;;5.10;;
7193;SDS011;3638;48.820;9.244;2023-02-26T03:46:53;5.00;;;4.60;;
7193;SDS011;3638;48.820;9.244;2023-02-26T03:49:26;5.30;;;4.80;;
7193;SDS011;3638;48.820;9.244;2023-02-26T03:51:58;6.40;;;4.97;;
7193;SDS011;3638;48.820;9.244;2023-02-26T03:54:26;6.53;;;5.50;;
7193;SDS011;3638;48.820;9.244;2023-02-26T03:56:57;5.67;;;5.13;;
7193;SDS011;3638;48.820;9.244;2023-02-26T03:59:24;5.43;;;4.93;;
7193;SDS011;3638;48.820;9.244;2023-02-26T04:01:52;5.70;;;5.10;;
7193;SDS011;3638;48.820;9.244;2023-02-26T04:04:26;5.90;;;4.53;;
7193;SDS011;3638;48.820;9.244;2023-02-26T04:06:57;6.77;;;5.07;;
7193;SDS011;3638;48.820;9.244;2023-02-26T04:09:25;7.50;;;4.80;;
7193;SDS011;3638;48.820;9.244;2023-02-26T04:11:52;6.03;;;4.63;;
7193;SDS011;3638;48.820;9.244;2023-02-26T04:14:22;6.30;;;5.00;;
7193;SDS011;3638;48.820;9.244;2023-02-26T04:16:49;5.83;;;5.10;;
7193;SDS011;3638;48.820;9.244;2023-02-26T04:19:16;5.40;;;4.90;;
7193;SDS011;3638;48.820;9.244;2023-02-26T04:21:44;4.87;;;4.57;;
7193;SDS011;3638;48.820;9.244;2023-02-26T04:24:11;5.47;;;4.90;;
7193;SDS011;3638;48.820;9.244;2023-02-26T04:26:38;5.80;;;5.10;;
7193;SDS011;3638;48.820;9.244;2023-02-26T04:29:05;7.20;;;5.20;;
7193;SDS011;3638;48.820;9.244;2023-02-26T04:31:32;5.27;;;4.77;;
7193;SDS011;3638;48.820;9.244;2023-02-26T04:33:59;7.60;;;4.90;;
7193;SDS011;3638;48.820;9.244;2023-02-26T04:36:26;6.13;;;4.70;;
7193;SDS011;3638;48.820;9.244;2023-02-26T04:38:54;6.00;;;5.17;;
7193;SDS011;3638;48.820;9.244;2023-02-26T04:41:21;6.27;;;5.60;;
7193;SDS011;3638;48.820;9.244;2023-02-26T04:43:48;6.00;;;5.40;;
7193;SDS011;3638;48.820;9.244;2023-02-26T04:46:14;5.67;;;5.13;;
7193;SDS011;3638;48.820;9.244;2023-02-26T04:48:41;5.63;;;5.13;;
7193;SDS011;3638;48.820;9.244;2023-02-26T04:51:08;6.47;;;5.97;;
7193;SDS011;3638;48.820;9.244;2023-02-26T04:53:35;5.50;;;5.00;;
7193;SDS011;3638;48.820;9.244;2023-02-26T04:56:03;5.43;;;5.03;;
7193;SDS011;3638;48.820;9.244;2023-02-26T04:58:31;6.47;;;5.67;;
7193;SDS011;3638;48.820;9.244;2023-02-26T05:00:58;6.37;;;5.17;;
7193;SDS011;3638;48.820;9.244;2023-02-26T05:03:25;7.50;;;5.37;;
7193;SDS011;3638;48.820;9.244;2023-02-26T05:05:52;7.73;;;5.83;;
7193;SDS011;3638;48.820;9.244;2023-02-26T05:08:19;10.40;;;5.40;;
7193;SDS011;3638;48.820;9.244;2023-02-26T05:10:46;5.90;;;5.40;;
7193;SDS011;3638;48.820;9.244;2023-02-26T05:13:14;6.07;;;5.47;;
7193;SDS011;3638;48.820;9.244;2023-02-26T05:15:41;5.53;;;4.90;;
7193;SDS011;3638;48.820;9.244;2023-02-26T05:18:08;9.10;;;5.40;;
7193;SDS011;3638;48.820;9.244;2023-02-26T05:20:35;5.63;;;5.10;;
7193;SDS011;3638;48.820;9.244;2023-02-26T05:23:02;6.03;;;5.20;;
7193;SDS011;3638;48.820;9.244;2023-02-26T05:25:29;5.70;;;5.20;;
7193;SDS011;3638;48.820;9.244;2023-02-26T05:27:56;5.90;;;5.40;;
7193;SDS011;3638;48.820;9.244;2023-02-26T05:30:24;7.87;;;5.23;;
7193;SDS011;3638;48.820;9.244;2023-02-26T05:32:51;5.70;;;5.07;;
7193;SDS011;3638;48.820;9.244;2023-02-26T05:35:18;9.73;;;5.73;;
7193;SDS011;3638;48.820;9.244;2023-02-26T05:37:45;6.43;;;5.47;;
7193;SDS011;3638;48.820;9.244;2023-02-26T05:40:12;5.93;;;5.27;;
7193;SDS011;3638;48.820;9.244;2023-02-26T05:42:39;5.50;;;5.00;;
7193;SDS011;3638;48.820;9.244;2023-02-26T05:45:06;5.73;;;5.23;;
7193;SDS011;3638;48.820;9.244;2023-02-26T05:47:35;6.53;;;5.33;;
7193;SDS011;3638;48.820;9.244;2023-02-26T05:50:03;6.10;;;5.07;;
7193;SDS011;3638;48.820;9.244;2023-02-26T05:52:32;5.63;;;5.03;;
7193;SDS011;3638;48.820;9.244;2023-02-26T05:54:59;7.57;;;5.50;;
7193;SDS011;3638;48.820;9.244;2023-02-26T05:57:26;6.10;;;5.50;;
7193;SDS011;3638;48.820;9.244;2023-02-26T05:59:53;6.40;;;5.73;;
7193;SDS011;3638;48.820;9.244;2023-02-26T06:02:20;7.73;;;5.50;;
7193;SDS011;3638;48.820;9.244;2023-02-26T06:04:48;8.57;;;5.83;;
7193;SDS011;3638;48.820;9.244;2023-02-26T06:07:15;8.57;;;6.00;;
7193;SDS011;3638;48.820;9.244;2023-02-26T06:09:42;7.80;;;5.60;;
7193;SDS011;3638;48.820;9.244;2023-02-26T06:12:09;6.63;;;5.37;;
7193;SDS011;3638;48.820;9.244;2023-02-26T06:14:36;7.40;;;6.70;;
7193;SDS011;3638;48.820;9.244;2023-02-26T06:17:03;8.30;;;7.60;;
7193;SDS011;3638;48.820;9.244;2023-02-26T06:19:30;13.67;;;12.37;;
7193;SDS011;3638;48.820;9.244;2023-02-26T06:21:59;10.23;;;9.00;;
7193;SDS011;3638;48.820;9.244;2023-02-26T06:24:26;7.13;;;6.43;;
7193;SDS011;3638;48.820;9.244;2023-02-26T06:26:53;9.70;;;6.33;;
7193;SDS011;3638;48.820;9.244;2023-02-26T06:29:19;7.33;;;6.63;;
7193;SDS011;3638;48.820;9.244;2023-02-26T06:31:47;7.20;;;6.60;;
7193;SDS011;3638;48.820;9.244;2023-02-26T06:34:14;7.17;;;6.57;;
7193;SDS011;3638;48.820;9.244;2023-02-26T06:36:42;8.73;;;7.40;;
7193;SDS011;3638;48.820;9.244;2023-02-26T06:39:10;8.33;;;7.10;;
7193;SDS011;3638;48.820;9.244;2023-02-26T06:41:37;7.70;;;7.00;;
7193;SDS011;3638;48.820;9.244;2023-02-26T06:44:04;8.60;;;6.67;;
7193;SDS011;3638;48.820;9.244;2023-02-26T06:46:31;6.53;;;6.03;;
7193;SDS011;3638;48.820;9.244;2023-02-26T06:48:58;7.03;;;6.33;;
7193;SDS011;3638;48.820;9.244;2023-02-26T06:51:25;6.43;;;5.87;;
7193;SDS011;3638;48.820;9.244;2023-02-26T06:53:52;6.80;;;6.20;;
7193;SDS011;3638;48.820;9.244;2023-02-26T06:56:20;5.93;;;5.27;;
7193;SDS011;3638;48.820;9.244;2023-02-26T06:58:47;6.63;;;5.90;;
7193;SDS011;3638;48.820;9.244;2023-02-26T07:01:14;8.50;;;5.97;;
7193;SDS011;3638;48.820;9.244;2023-02-26T07:03:41;7.20;;;6.50;;
7193;SDS011;3638;48.820;9.244;2023-02-26T07:06:08;7.23;;;6.23;;
7193;SDS011;3638;48.820;9.244;2023-02-26T07:08:37;8.73;;;6.00;;
7193;SDS011;3638;48.820;9.244;2023-02-26T07:11:04;9.13;;;5.93;;
7193;SDS011;3638;48.820;9.244;2023-02-26T07:13:34;6.57;;;5.70;;
7193;SDS011;3638;48.820;9.244;2023-02-26T07:16:01;7.87;;;5.50;;
7193;SDS011;3638;48.820;9.244;2023-02-26T07:18:28;5.40;;;5.00;;
7193;SDS011;3638;48.820;9.244;2023-02-26T07:20:54;5.20;;;4.80;;
7193;SDS011;3638;48.820;9.244;2023-02-26T07:23:21;5.67;;;5.17;;
7193;SDS011;3638;48.820;9.244;2023-02-26T07:25:48;5.27;;;4.80;;
7193;SDS011;3638;48.820;9.244;2023-02-26T07:28:15;5.90;;;4.77;;
7193;SDS011;3638;48.820;9.244;2023-02-26T07:30:43;5.83;;;5.30;;
7193;SDS011;3638;48.820;9.244;2023-02-26T07:33:10;7.80;;;6.73;;
7193;SDS011;3638;48.820;9.244;2023-02-26T07:35:37;7.77;;;5.70;;
7193;SDS011;3638;48.820;9.244;2023-02-26T07:38:05;5.20;;;4.80;;
7193;SDS011;3638;48.820;9.244;2023-02-26T07:40:32;5.57;;;4.97;;
7193;SDS011;3638;48.820;9.244;2023-02-26T07:42:59;6.20;;;4.77;;
7193;SDS011;3638;48.820;9.244;2023-02-26T07:45:25;5.73;;;4.93;;
7193;SDS011;3638;48.820;9.244;2023-02-26T07:47:54;5.73;;;5.20;;
7193;SDS011;3638;48.820;9.244;2023-02-26T07:50:21;5.63;;;5.00;;
7193;SDS011;3638;48.820;9.244;2023-02-26T07:52:49;5.30;;;4.80;;
7193;SDS011;3638;48.820;9.244;2023-02-26T07:55:17;5.17;;;4.57;;
7193;SDS011;3638;48.820;9.244;2023-02-26T07:57:44;6.03;;;5.00;;
7193;SDS011;3638;48.820;9.244;2023-02-26T08:00:11;5.57;;;4.80;;
7193;SDS011;3638;48.820;9.244;2023-02-26T08:02:40;5.43;;;4.63;;
7193;SDS011;3638;48.820;9.244;2023-02-26T08:05:09;5.63;;;4.80;;
7193;SDS011;3638;48.820;9.244;2023-02-26T08:07:36;5.97;;;4.47;;
7193;SDS011;3638;48.820;9.244;2023-02-26T08:10:03;5.27;;;4.77;;
7193;SDS011;3638;48.820;9.244;2023-02-26T08:12:30;4.60;;;4.10;;
7193;SDS011;3638;48.820;9.244;2023-02-26T08:14:58;4.13;;;3.70;;
7193;SDS011;3638;48.820;9.244;2023-02-26T08:17:24;5.67;;;4.50;;
7193;SDS011;3638;48.820;9.244;2023-02-26T08:19:51;6.43;;;4.87;;
7193;SDS011;3638;48.820;9.244;2023-02-26T08:22:20;7.47;;;4.50;;
7193;SDS011;3638;48.820;9.244;2023-02-26T08:24:47;5.80;;;4.27;;
7193;SDS011;3638;48.820;9.244;2023-02-26T08:27:14;5.60;;;4.70;;
7193;SDS011;3638;48.820;9.244;2023-02-26T08:29:41;5.80;;;4.30;;
7193;SDS011;3638;48.820;9.244;2023-02-26T08:32:10;5.43;;;4.93;;
7193;SDS011;3638;48.820;9.244;2023-02-26T08:34:37;6.40;;;5.20;;
7193;SDS011;3638;48.820;9.244;2023-02-26T08:37:04;5.13;;;4.63;;
7193;SDS011;3638;48.820;9.244;2023-02-26T08:39:34;5.00;;;4.60;;
7193;SDS011;3638;48.820;9.244;2023-02-26T08:42:03;4.63;;;4.23;;
7193;SDS011;3638;48.820;9.244;2023-02-26T08:44:30;4.83;;;4.33;;
7193;SDS011;3638;48.820;9.244;2023-02-26T08:46:57;4.37;;;3.97;;
7193;SDS011;3638;48.820;9.244;2023-02-26T08:49:24;5.23;;;4.70;;
7193;SDS011;3638;48.820;9.244;2023-02-26T08:51:51;5.70;;;4.10;;
7193;SDS011;3638;48.820;9.244;2023-02-26T08:54:18;6.13;;;4.23;;
7193;SDS011;3638;48.820;9.244;2023-02-26T08:56:46;5.43;;;4.60;;
7193;SDS011;3638;48.820;9.244;2023-02-26T08:59:13;4.20;;;3.80;;
7193;SDS011;3638;48.820;9.244;2023-02-26T09:01:40;7.23;;;4.40;;
7193;SDS011;3638;48.820;9.244;2023-02-26T09:04:07;4.43;;;4.03;;
7193;SDS011;3638;48.820;9.244;2023-02-26T09:06:34;6.13;;;4.30;;
7193;SDS011;3638;48.820;9.244;2023-02-26T09:09:01;4.30;;;3.90;;
7193;SDS011;3638;48.820;9.244;2023-02-26T09:11:29;4.50;;;4.17;;
7193;SDS011;3638;48.820;9.244;2023-02-26T09:13:57;5.13;;;3.50;;
7193;SDS011;3638;48.820;9.244;2023-02-26T09:16:26;5.07;;;3.60;;
7193;SDS011;3638;48.820;9.244;2023-02-26T09:18:53;5.70;;;3.70;;
7193;SDS011;3638;48.820;9.244;2023-02-26T09:21:20;4.93;;;3.93;;
7193;SDS011;3638;48.820;9.244;2023-02-26T09:23:47;5.50;;;3.60;;
7193;SDS011;3638;48.820;9.244;2023-02-26T09:26:14;3.63;;;3.43;;
7193;SDS011;3638;48.820;9.244;2023-02-26T09:28:41;4.33;;;3.73;;
7193;SDS011;3638;48.820;9.244;2023-02-26T09:31:09;5.53;;;3.60;;
7193;SDS011;3638;48.820;9.244;2023-02-26T09:33:36;3.60;;;3.30;;
7193;SDS011;3638;48.820;9.244;2023-02-26T09:36:04;4.97;;;3.50;;
7193;SDS011;3638;48.820;9.244;2023-02-26T09:38:31;4.63;;;3.60;;
7193;SDS011;3638;48.820;9.244;2023-02-26T09:41:00;4.67;;;3.40;;
7193;SDS011;3638;48.820;9.244;2023-02-26T09:43:41;4.33;;;3.40;;
7193;SDS011;3638;48.820;9.244;2023-02-26T09:46:38;7.73;;;3.50;;
7193;SDS011;3638;48.820;9.244;2023-02-26T09:49:15;4.67;;;3.73;;
7193;SDS011;3638;48.820;9.244;2023-02-26T09:51:49;3.77;;;3.13;;
7193;SDS011;3638;48.820;9.244;2023-02-26T09:54:23;4.87;;;3.80;;
7193;SDS011;3638;48.820;9.244;2023-02-26T09:56:55;4.00;;;3.70;;
7193;SDS011;3638;48.820;9.244;2023-02-26T09:59:26;4.10;;;3.60;;
7193;SDS011;3638;48.820;9.244;2023-02-26T10:01:59;4.27;;;3.87;;
7193;SDS011;3638;48.820;9.244;2023-02-26T10:04:40;4.53;;;3.97;;
7193;SDS011;3638;48.820;9.244;2023-02-26T10:07:18;4.90;;;3.60;;
7193;SDS011;3638;48.820;9.244;2023-02-26T10:09:57;3.60;;;3.30;;
7193;SDS011;3638;48.820;9.244;2023-02-26T10:12:35;4.27;;;3.63;;
7193;SDS011;3638;48.820;9.244;2023-02-26T10:15:07;4.00;;;3.60;;
7193;SDS011;3638;48.820;9.244;2023-02-26T10:17:41;3.67;;;3.23;;
7193;SDS011;3638;48.820;9.244;2023-02-26T10:20:23;3.80;;;3.50;;
7193;SDS011;3638;48.820;9.244;2023-02-26T10:22:56;3.60;;;3.30;;
7193;SDS011;3638;48.820;9.244;2023-02-26T10:25:30;3.83;;;3.33;;
7193;SDS011;3638;48.820;9.244;2023-02-26T10:28:06;4.00;;;3.50;;
7193;SDS011;3638;48.820;9.244;2023-02-26T10:30:49;4.97;;;3.90;;
7193;SDS011;3638;48.820;9.244;2023-02-26T10:33:27;3.50;;;3.30;;
7193;SDS011;3638;48.820;9.244;2023-02-26T10:36:06;5.10;;;3.60;;
7193;SDS011;3638;48.820;9.244;2023-02-26T10:38:40;3.97;;;3.67;;
7193;SDS011;3638;48.820;9.244;2023-02-26T10:41:09;3.97;;;3.63;;
7193;SDS011;3638;48.820;9.244;2023-02-26T10:43:41;5.33;;;3.40;;
7193;SDS011;3638;48.820;9.244;2023-02-26T10:46:17;5.00;;;3.63;;
7193;SDS011;3638;48.820;9.244;2023-02-26T10:48:57;3.70;;;3.40;;
7193;SDS011;3638;48.820;9.244;2023-02-26T10:51:43;3.93;;;3.60;;
7193;SDS011;3638;48.820;9.244;2023-02-26T10:54:12;3.87;;;3.53;;
7193;SDS011;3638;48.820;9.244;2023-02-26T10:56:43;3.90;;;3.60;;
7193;SDS011;3638;48.820;9.244;2023-02-26T10:59:10;3.80;;;3.50;;
7193;SDS011;3638;48.820;9.244;2023-02-26T11:01:37;4.40;;;3.77;;
7193;SDS011;3638;48.820;9.244;2023-02-26T11:04:06;3.97;;;3.67;;
7193;SDS011;3638;48.820;9.244;2023-02-26T11:06:38;4.37;;;3.73;;
7193;SDS011;3638;48.820;9.244;2023-02-26T11:09:13;4.17;;;3.87;;
7193;SDS011;3638;48.820;9.244;2023-02-26T11:11:47;3.73;;;3.43;;
7193;SDS011;3638;48.820;9.244;2023-02-26T11:14:17;4.07;;;3.77;;
7193;SDS011;3638;48.820;9.244;2023-02-26T11:16:46;4.57;;;3.67;;
7193;SDS011;3638;48.820;9.244;2023-02-26T11:19:19;3.87;;;3.60;;
7193;SDS011;3638;48.820;9.244;2023-02-26T11:21:52;3.57;;;3.37;;
7193;SDS011;3638;48.820;9.244;2023-02-26T11:24:20;3.70;;;3.40;;
7193;SDS011;3638;48.820;9.244;2023-02-26T11:26:56;3.80;;;3.47;;
7193;SDS011;3638;48.820;9.244;2023-02-26T11:29:28;3.53;;;3.33;;
7193;SDS011;3638;48.820;9.244;2023-02-26T11:32:03;3.13;;;3.00;;
7193;SDS011;3638;48.820;9.244;2023-02-26T11:34:32;3.53;;;3.23;;
7193;SDS011;3638;48.820;9.244;2023-02-26T11:37:00;3.53;;;3.23;;
7193;SDS011;3638;48.820;9.244;2023-02-26T11:39:32;3.23;;;3.03;;
7193;SDS011;3638;48.820;9.244;2023-02-26T11:42:01;3.40;;;3.20;;
7193;SDS011;3638;48.820;9.244;2023-02-26T11:44:33;3.13;;;2.93;;
7193;SDS011;3638;48.820;9.244;2023-02-26T11:47:04;3.40;;;3.20;;
7193;SDS011;3638;48.820;9.244;2023-02-26T11:49:39;3.37;;;3.13;;
7193;SDS011;3638;48.820;9.244;2023-02-26T11:52:17;3.27;;;3.07;;
7193;SDS011;3638;48.820;9.244;2023-02-26T11:54:48;3.20;;;3.00;;
7193;SDS011;3638;48.820;9.244;2023-02-26T11:57:24;3.20;;;3.00;;
7193;SDS011;3638;48.820;9.244;2023-02-26T11:59:54;3.53;;;3.30;;
7193;SDS011;3638;48.820;9.244;2023-02-26T12:02:24;3.40;;;3.20;;
7193;SDS011;3638;48.820;9.244;2023-02-26T12:04:58;3.47;;;3.27;;
7193;SDS011;3638;48.820;9.244;2023-02-26T12:07:29;3.87;;;3.57;;
7193;SDS011;3638;48.820;9.244;2023-02-26T12:09:56;3.70;;;3.40;;
7193;SDS011;3638;48.820;9.244;2023-02-26T12:12:27;3.30;;;3.10;;
7193;SDS011;3638;48.820;9.244;2023-02-26T12:18:02;3.40;;;3.20;;
7193;SDS011;3638;48.820;9.244;2023-02-26T12:20:57;3.90;;;3.60;;
7193;SDS011;3638;48.820;9.244;2023-02-26T12:23:45;3.80;;;3.60;;
7193;SDS011;3638;48.820;9.244;2023-02-26T12:26:43;3.77;;;3.47;;
7193;SDS011;3638;48.820;9.244;2023-02-26T12:29:36;3.50;;;3.30;;
7193;SDS011;3638;48.820;9.244;2023-02-26T12:32:32;3.53;;;3.33;;
7193;SDS011;3638;48.820;9.244;2023-02-26T12:38:27;3.50;;;3.20;;
7193;SDS011;3638;48.820;9.244;2023-02-26T12:41:05;3.40;;;3.20;;
7193;SDS011;3638;48.820;9.244;2023-02-26T12:44:06;3.33;;;3.13;;
7193;SDS011;3638;48.820;9.244;2023-02-26T12:46:49;3.40;;;3.20;;
7193;SDS011;3638;48.820;9.244;2023-02-26T12:49:45;3.60;;;3.40;;
7193;SDS011;3638;48.820;9.244;2023-02-26T12:55:47;3.40;;;3.20;;
7193;SDS011;3638;48.820;9.244;2023-02-26T12:58:32;3.40;;;3.20;;
7193;SDS011;3638;48.820;9.244;2023-02-26T13:01:20;3.30;;;3.10;;
7193;SDS011;3638;48.820;9.244;2023-02-26T13:04:23;3.10;;;2.90;;
7193;SDS011;3638;48.820;9.244;2023-02-26T13:07:19;3.00;;;2.83;;
7193;SDS011;3638;48.820;9.244;2023-02-26T13:10:09;3.00;;;2.80;;
7193;SDS011;3638;48.820;9.244;2023-02-26T13:12:49;4.00;;;3.40;;
7193;SDS011;3638;48.820;9.244;2023-02-26T13:15:32;3.40;;;3.10;;
7193;SDS011;3638;48.820;9.244;2023-02-26T13:18:16;3.50;;;3.30;;
7193;SDS011;3638;48.820;9.244;2023-02-26T13:20:53;3.07;;;2.90;;
7193;SDS011;3638;48.820;9.244;2023-02-26T13:23:25;2.77;;;2.67;;
7193;SDS011;3638;48.820;9.244;2023-02-26T13:26:01;2.70;;;2.60;;
7193;SDS011;3638;48.820;9.244;2023-02-26T13:28:35;2.93;;;2.80;;
7193;SDS011;3638;48.820;9.244;2023-02-26T13:31:08;3.63;;;3.00;;
7193;SDS011;3638;48.820;9.244;2023-02-26T13:33:39;3.00;;;2.80;;
7193;SDS011;3638;48.820;9.244;2023-02-26T13:36:08;3.43;;;3.20;;
7193;SDS011;3638;48.820;9.244;2023-02-26T13:38:39;3.00;;;2.87;;
7193;SDS011;3638;48.820;9.244;2023-02-26T13:41:24;2.83;;;2.73;;
7193;SDS011;3638;48.820;9.244;2023-02-26T13:44:05;3.53;;;3.23;;
7193;SDS011;3638;48.820;9.244;2023-02-26T13:46:47;3.20;;;2.80;;
7193;SDS011;3638;48.820;9.244;2023-02-26T13:49:41;2.73;;;2.60;;
7193;SDS011;3638;48.820;9.244;2023-02-26T13:52:23;3.03;;;2.83;;
7193;SDS011;3638;48.820;9.244;2023-02-26T13:54:52;3.00;;;2.80;;
7193;SDS011;3638;48.820;9.244;2023-02-26T13:57:24;2.73;;;2.63;;
7193;SDS011;3638;48.820;9.244;2023-02-26T14:00:06;3.27;;;3.07;;
7193;SDS011;3638;48.820;9.244;2023-02-26T14:02:52;3.20;;;2.90;;
7193;SDS011;3638;48.820;9.244;2023-02-26T14:05:29;3.00;;;2.80;;
7193;SDS011;3638;48.820;9.244;2023-02-26T14:08:25;2.90;;;2.80;;
7193;SDS011;3638;48.820;9.244;2023-02-26T14:14:15;3.10;;;2.80;;
7193;SDS011;3638;48.820;9.244;2023-02-26T14:16:54;3.07;;;2.90;;
7193;SDS011;3638;48.820;9.244;2023-02-26T14:20:15;3.10;;;2.90;;
7193;SDS011;3638;48.820;9.244;2023-02-26T14:22:58;3.07;;;2.87;;
7193;SDS011;3638;48.820;9.244;2023-02-26T14:26:02;3.10;;;2.90;;
7193;SDS011;3638;48.820;9.244;2023-02-26T14:28:56;3.00;;;2.80;;
7193;SDS011;3638;48.820;9.244;2023-02-26T14:31:50;2.83;;;2.67;;
7193;SDS011;3638;48.820;9.244;2023-02-26T14:34:45;2.70;;;2.60;;
7193;SDS011;3638;48.820;9.244;2023-02-26T14:37:17;2.73;;;2.63;;
7193;SDS011;3638;48.820;9.244;2023-02-26T14:39:48;2.70;;;2.60;;
7193;SDS011;3638;48.820;9.244;2023-02-26T14:42:21;2.70;;;2.60;;
7193;SDS011;3638;48.820;9.244;2023-02-26T14:44:57;3.03;;;2.60;;
7193;SDS011;3638;48.820;9.244;2023-02-26T14:47:34;2.90;;;2.80;;
7193;SDS011;3638;48.820;9.244;2023-02-26T14:50:04;2.80;;;2.60;;
7193;SDS011;3638;48.820;9.244;2023-02-26T14:52:42;3.10;;;2.80;;
7193;SDS011;3638;48.820;9.244;2023-02-26T14:55:46;3.77;;;2.50;;
7193;SDS011;3638;48.820;9.244;2023-02-26T14:58:33;2.70;;;2.60;;
7193;SDS011;3638;48.820;9.244;2023-02-26T15:01:31;2.90;;;2.70;;
7193;SDS011;3638;48.820;9.244;2023-02-26T15:04:14;3.00;;;2.80;;
7193;SDS011;3638;48.820;9.244;2023-02-26T15:07:13;2.77;;;2.57;;
7193;SDS011;3638;48.820;9.244;2023-02-26T15:09:56;3.37;;;3.17;;
7193;SDS011;3638;48.820;9.244;2023-02-26T15:12:41;2.90;;;2.70;;
7193;SDS011;3638;48.820;9.244;2023-02-26T15:15:31;3.20;;;3.00;;
7193;SDS011;3638;48.820;9.244;2023-02-26T15:18:08;2.70;;;2.60;;
7193;SDS011;3638;48.820;9.244;2023-02-26T15:20:53;3.17;;;2.90;;
7193;SDS011;3638;48.820;9.244;2023-02-26T15:23:36;2.73;;;2.63;;
7193;SDS011;3638;48.820;9.244;2023-02-26T15:26:07;3.20;;;2.90;;
7193;SDS011;3638;48.820;9.244;2023-02-26T15:28:44;3.07;;;2.80;;
7193;SDS011;3638;48.820;9.244;2023-02-26T15:31:11;3.37;;;3.17;;
7193;SDS011;3638;48.820;9.244;2023-02-26T15:33:38;2.83;;;2.63;;
7193;SDS011;3638;48.820;9.244;2023-02-26T15:36:07;3.20;;;2.90;;
7193;SDS011;3638;48.820;9.244;2023-02-26T15:38:40;3.10;;;2.90;;
7193;SDS011;3638;48.820;9.244;2023-02-26T15:41:10;3.40;;;2.90;;
7193;SDS011;3638;48.820;9.244;2023-02-26T15:43:38;3.30;;;3.10;;
7193;SDS011;3638;48.820;9.244;2023-02-26T15:46:11;3.10;;;2.90;;
7193;SDS011;3638;48.820;9.244;2023-02-26T15:48:40;3.00;;;2.80;;
7193;SDS011;3638;48.820;9.244;2023-02-26T15:51:09;3.20;;;3.00;;
7193;SDS011;3638;48.820;9.244;2023-02-26T15:53:41;3.20;;;3.00;;
7193;SDS011;3638;48.820;9.244;2023-02-26T15:56:10;3.00;;;2.80;;
7193;SDS011;3638;48.820;9.244;2023-02-26T15:58:44;2.97;;;2.77;;
7193;SDS011;3638;48.820;9.244;2023-02-26T16:01:15;3.17;;;2.97;;
7193;SDS011;3638;48.820;9.244;2023-02-26T16:03:45;3.00;;;2.90;;
7193;SDS011;3638;48.820;9.244;2023-02-26T16:06:14;3.27;;;3.00;;
7193;SDS011;3638;48.820;9.244;2023-02-26T16:08:45;2.60;;;2.50;;
7193;SDS011;3638;48.820;9.244;2023-02-26T16:11:12;2.70;;;2.60;;